Time;durP1;ratioP1;P1;durP2;ratioP2;P2;SDS_P1;SDS_P2;PMS_P1;PMS_P2;Temp;Humidity;BMP_temperature;BMP_pressure;BME280_temperature;BME280_humidity;BME280_pressure;Samples;Min_cycle;Max_cycle;Signal;HPM_P1;HPM_P2
2022/12/19 00:01:05;;;;;;;29.47;18.50;;;;;;;5.99;100.00;101246.00;5050335;28;20196;-61
2022/12/19 00:03:32;;;;;;;28.10;18.43;;;;;;;6.02;100.00;101251.22;5050726;28;20279;-56
2022/12/19 00:06:02;;;;;;;33.50;20.47;;;;;;;6.03;100.00;101252.97;5050724;28;20300;-57
2022/12/19 00:08:33;;;;;;;26.63;16.00;;;;;;;6.00;100.00;101255.47;5050608;28;20257;-57
2022/12/19 00:11:02;;;;;;;28.87;17.30;;;;;;;5.97;100.00;101258.88;5050822;28;20233;-60
2022/12/19 00:13:30;;;;;;;27.50;18.30;;;;;;;5.96;100.00;101262.31;5050387;28;20216;-58
2022/12/19 00:16:02;;;;;;;27.03;14.43;;;;;;;5.94;100.00;101265.69;5050461;28;20232;-60
2022/12/19 00:18:29;;;;;;;25.00;17.20;;;;;;;5.89;100.00;101262.16;5050398;28;20258;-57
2022/12/19 00:20:58;;;;;;;28.07;16.50;;;;;;;5.92;100.00;101272.53;5050472;28;20196;-57
2022/12/19 00:23:26;;;;;;;28.27;17.73;;;;;;;5.90;100.00;101271.63;5050388;28;20645;-60
2022/12/19 00:25:52;;;;;;;30.67;18.00;;;;;;;5.94;100.00;101269.13;5050496;28;20208;-57
2022/12/19 00:28:20;;;;;;;27.53;17.43;;;;;;;5.96;100.00;101270.03;5050274;28;20204;-60
2022/12/19 00:30:47;;;;;;;30.00;17.83;;;;;;;5.99;100.00;101272.66;5050207;28;20196;-60
2022/12/19 00:33:15;;;;;;;32.53;19.93;;;;;;;5.91;100.00;101265.63;5050261;28;20235;-60
2022/12/19 00:35:42;;;;;;;31.03;18.90;;;;;;;5.96;100.00;101279.47;5050134;28;20192;-57
2022/12/19 00:38:09;;;;;;;28.03;17.80;;;;;;;5.91;100.00;101289.69;5050437;28;20728;-59
2022/12/19 00:40:36;;;;;;;29.03;17.07;;;;;;;5.93;100.00;101293.16;5050028;28;20218;-60
2022/12/19 00:43:03;;;;;;;31.60;17.97;;;;;;;6.02;100.00;101292.47;5050075;28;20218;-60
2022/12/19 00:45:30;;;;;;;29.07;17.43;;;;;;;5.95;100.00;101283.75;5049642;28;20196;-56
2022/12/19 00:47:57;;;;;;;26.93;16.27;;;;;;;5.96;100.00;101282.94;5049509;28;20201;-56
2022/12/19 00:50:25;;;;;;;30.07;18.40;;;;;;;5.97;100.00;101283.78;5049825;28;20206;-59
2022/12/19 00:52:52;;;;;;;27.67;17.27;;;;;;;5.94;100.00;101287.19;5049954;28;20228;-60
2022/12/19 00:55:19;;;;;;;29.87;17.80;;;;;;;5.98;100.00;101280.38;5049807;28;20236;-60
2022/12/19 00:57:45;;;;;;;29.67;17.73;;;;;;;5.99;100.00;101295.84;5049818;28;20196;-60
2022/12/19 01:00:14;;;;;;;28.07;17.37;;;;;;;5.92;100.00;101294.00;5049764;28;20761;-57
2022/12/19 01:02:41;;;;;;;31.30;16.97;;;;;;;5.94;100.00;101301.78;5049722;28;20749;-56
2022/12/19 01:05:08;;;;;;;27.77;16.47;;;;;;;5.98;100.00;101296.69;5049670;28;20223;-60
2022/12/19 01:07:37;;;;;;;34.43;17.80;;;;;;;5.95;100.00;101306.09;5049973;28;20200;-61
2022/12/19 01:10:05;;;;;;;28.03;16.47;;;;;;;5.97;100.00;101299.25;5049509;28;20200;-59
2022/12/19 01:12:47;;;;;;;26.27;15.83;;;;;;;5.90;100.00;101297.38;5048578;28;20645;-57
2022/12/19 01:15:16;;;;;;;26.63;16.27;;;;;;;5.87;100.00;101295.59;5049694;28;20853;-60
2022/12/19 01:17:44;;;;;;;26.77;16.40;;;;;;;5.91;100.00;101288.81;5049597;28;20307;-59
2022/12/19 01:20:11;;;;;;;28.43;16.90;;;;;;;5.94;100.00;101299.19;5049584;28;20200;-56
2022/12/19 01:22:40;;;;;;;23.00;15.87;;;;;;;5.88;100.00;101289.63;5049461;28;20215;-57
2022/12/19 01:25:07;;;;;;;25.50;14.67;;;;;;;5.88;100.00;101288.72;5049585;28;20202;-56
2022/12/19 01:27:34;;;;;;;29.90;15.87;;;;;;;5.85;100.00;101292.13;5049604;28;20200;-59
2022/12/19 01:30:01;;;;;;;31.30;17.03;;;;;;;5.80;100.00;101292.03;5049187;28;20203;-56
2022/12/19 01:32:28;;;;;;;30.10;17.80;;;;;;;5.84;100.00;101288.69;5049213;28;20224;-57
2022/12/19 01:34:55;;;;;;;35.27;19.93;;;;;;;5.88;100.00;101299.03;5049150;28;20196;-59
2022/12/19 01:37:22;;;;;;;30.37;18.10;;;;;;;5.82;100.00;101290.38;5049258;28;20595;-56
2022/12/19 01:39:50;;;;;;;34.47;18.53;;;;;;;5.84;100.00;101300.72;5049251;28;20595;-58
2022/12/19 01:42:19;;;;;;;31.50;18.77;;;;;;;5.80;100.00;101293.75;5049031;28;20197;-58
2022/12/19 01:45:37;;;;;;;32.17;18.03;;;;;;;5.88;100.00;101297.34;5049043;28;20543;-60
2022/12/19 01:48:22;;;;;;;32.10;16.43;;;;;;;5.80;100.00;101299.78;5049278;28;20204;-60
2022/12/19 01:50:55;;;;;;;28.93;16.57;;;;;;;5.84;100.00;101296.41;5048874;28;20196;-59
2022/12/19 01:53:25;;;;;;;32.43;18.63;;;;;;;5.80;100.00;101297.19;5049317;28;20601;-60
2022/12/19 01:55:55;;;;;;;29.80;18.23;;;;;;;5.81;100.00;101298.94;5049050;28;20309;-57
2022/12/19 01:58:22;;;;;;;33.00;19.40;;;;;;;5.72;100.00;101292.75;5049058;28;20199;-61
2022/12/19 02:00:49;;;;;;;29.93;17.27;;;;;;;5.77;100.00;101302.28;5049213;28;21016;-60
2022/12/19 02:03:22;;;;;;;28.83;16.77;;;;;;;5.84;100.00;101292.97;5048873;28;20192;-60
2022/12/19 02:05:51;;;;;;;30.50;18.40;;;;;;;5.88;100.00;101293.88;5048941;28;20208;-60
2022/12/19 02:08:18;;;;;;;34.17;19.67;;;;;;;5.84;100.00;101296.41;5049014;28;20711;-61
2022/12/19 02:10:45;;;;;;;38.47;19.23;;;;;;;5.92;100.00;101301.75;5048865;28;20196;-60
2022/12/19 02:13:14;;;;;;;31.07;18.73;;;;;;;5.90;100.00;101302.53;5048967;28;20601;-56
2022/12/19 02:15:48;;;;;;;33.93;18.77;;;;;;;5.94;100.00;101312.09;5048661;28;20228;-59
2022/12/19 02:18:23;;;;;;;36.60;19.83;;;;;;;6.06;100.00;101308.03;5048800;28;20206;-56
2022/12/19 02:21:11;;;;;;;29.80;18.90;;;;;;;6.04;100.00;101309.69;5048815;28;20295;-56
2022/12/19 02:24:11;;;;;;;28.43;16.30;;;;;;;5.95;100.00;101306.97;5050881;28;20192;-57
2022/12/19 02:27:22;;;;;;;30.97;16.90;;;;;;;5.90;100.00;101325.75;5052524;28;20196;-60
2022/12/19 02:30:10;;;;;;;28.33;15.50;;;;;;;5.77;100.00;101317.75;5013608;28;20668;-60
2022/12/19 02:32:50;;;;;;;27.73;15.77;;;;;;;5.71;100.00;101317.63;5052383;28;20665;-57
2022/12/19 02:35:25;;;;;;;25.23;14.47;;;;;;;5.65;100.00;101317.50;5052772;28;20670;-57
2022/12/19 02:37:58;;;;;;;25.77;14.17;;;;;;;5.61;100.00;101320.00;5052700;28;20678;-60
2022/12/19 02:40:30;;;;;;;25.37;14.73;;;;;;;5.55;100.00;101319.84;5052415;28;20212;-60
2022/12/19 02:42:59;;;;;;;23.50;14.60;;;;;;;5.57;100.00;101323.34;5052321;28;20197;-61
2022/12/19 02:45:29;;;;;;;26.47;15.37;;;;;;;5.52;100.00;101330.13;5052309;28;20289;-61
2022/12/19 02:47:59;;;;;;;24.90;13.80;;;;;;;5.53;100.00;101332.69;5052588;28;20195;-61
2022/12/19 02:50:26;;;;;;;19.77;11.17;;;;;;;5.52;100.00;101328.41;5051837;28;20665;-60
2022/12/19 02:52:53;;;;;;;24.93;14.50;;;;;;;5.48;100.00;101339.47;5051810;28;20323;-60
2022/12/19 02:55:24;;;;;;;24.27;13.53;;;;;;;5.44;100.00;101337.66;5051820;28;20204;-59
2022/12/19 02:58:15;;;;;;;23.77;14.10;;;;;;;5.45;100.00;101332.56;5052091;28;20196;-59
2022/12/19 03:00:54;;;;;;;22.87;12.83;;;;;;;5.40;100.00;101339.34;5052148;28;20695;-59
2022/12/19 03:03:32;;;;;;;26.47;13.30;;;;;;;5.45;100.00;101342.84;5052041;28;20197;-60
2022/12/19 03:06:08;;;;;;;21.03;13.27;;;;;;;5.34;100.00;101346.91;5051853;28;20688;-56
2022/12/19 03:08:42;;;;;;;19.90;12.47;;;;;;;5.32;100.00;101356.28;5052070;28;20604;-56
2022/12/19 03:11:13;;;;;;;20.77;12.67;;;;;;;5.22;100.00;101340.63;5052041;28;20205;-59
2022/12/19 03:13:46;;;;;;;22.93;12.47;;;;;;;5.04;100.00;101357.41;5051668;28;20220;-59
2022/12/19 03:16:13;;;;;;;24.20;12.67;;;;;;;5.09;100.00;101353.22;5051637;28;20228;-56
2022/12/19 03:18:42;;;;;;;21.33;12.90;;;;;;;4.97;100.00;101354.63;5051452;28;20574;-57
2022/12/19 03:21:17;;;;;;;23.10;13.63;;;;;;;4.81;100.00;101355.13;5052000;28;20203;-64
2022/12/19 03:23:45;;;;;;;17.80;11.43;;;;;;;4.82;100.00;101364.56;5051801;28;20204;-60
2022/12/19 03:26:16;;;;;;;20.73;10.77;;;;;;;4.80;100.00;101367.09;5051806;28;20679;-60
2022/12/19 03:28:49;;;;;;;22.73;13.10;;;;;;;4.79;100.00;101373.09;5051610;28;20203;-56
2022/12/19 03:31:19;;;;;;;19.73;11.27;;;;;;;4.75;100.00;101371.25;5051617;28;20207;-57
2022/12/19 03:33:50;;;;;;;22.33;12.30;;;;;;;4.65;100.00;101377.00;5051462;28;20224;-57
2022/12/19 03:36:24;;;;;;;23.83;13.33;;;;;;;4.60;100.00;101378.63;5050361;28;20211;-57
2022/12/19 03:38:52;;;;;;;26.37;13.80;;;;;;;4.58;100.00;101385.41;5051221;28;20287;-57
2022/12/19 03:43:07;;;;;;;23.40;14.50;;;;;;;4.59;100.00;101384.59;5051142;28;20275;-57
2022/12/19 03:44:08;;;;;;;25.73;12.97;;;;;;;4.61;100.00;101383.81;5051543;28;20219;-60
2022/12/19 03:46:39;;;;;;;23.10;12.27;;;;;;;4.55;100.00;101395.63;5050974;28;20197;-56
2022/12/19 03:49:08;;;;;;;25.30;14.50;;;;;;;4.55;100.00;101405.91;5050864;28;20581;-56
2022/12/19 03:51:41;;;;;;;24.00;13.40;;;;;;;4.50;100.00;101402.38;5050709;28;20211;-55
2022/12/19 03:54:13;;;;;;;22.23;12.03;;;;;;;4.41;100.00;101395.25;5051173;28;20238;-55
2022/12/19 03:56:46;;;;;;;22.73;13.27;;;;;;;4.45;100.00;101406.50;5050892;28;20288;-56
2022/12/19 03:59:18;;;;;;;21.67;10.47;;;;;;;4.43;100.00;101408.16;5051176;28;20247;-56
2022/12/19 04:01:46;;;;;;;24.70;13.50;;;;;;;4.41;100.00;101402.97;5050781;28;20201;-60
2022/12/19 04:04:16;;;;;;;25.27;13.83;;;;;;;4.41;100.00;101408.13;5050909;28;20189;-60
2022/12/19 04:06:45;;;;;;;25.70;13.60;;;;;;;4.43;100.00;101408.16;5050881;28;20193;-60
2022/12/19 04:09:13;;;;;;;22.43;13.03;;;;;;;4.43;100.00;101409.03;5051001;28;20192;-56
2022/12/19 04:11:47;;;;;;;24.20;12.87;;;;;;;4.44;100.00;101402.19;5050601;28;20192;-57
2022/12/19 04:14:20;;;;;;;26.73;14.27;;;;;;;4.41;100.00;101402.97;5050631;28;20250;-60
2022/12/19 04:16:55;;;;;;;20.87;13.20;;;;;;;4.43;100.00;101391.03;5050120;28;20319;-56
2022/12/19 04:19:28;;;;;;;19.47;12.33;;;;;;;4.45;100.00;101391.06;5050089;28;20196;-57
2022/12/19 04:22:02;;;;;;;21.93;13.57;;;;;;;4.50;100.00;101402.38;5050348;28;20687;-56
2022/12/19 04:24:32;;;;;;;25.07;14.53;;;;;;;4.49;100.00;101400.63;5050222;28;20209;-55
2022/12/19 04:27:01;;;;;;;27.73;14.13;;;;;;;4.49;100.00;101401.50;5050576;28;20691;-56
2022/12/19 04:29:31;;;;;;;27.47;13.97;;;;;;;4.50;100.00;101407.50;5050202;28;20715;-57
2022/12/19 04:31:58;;;;;;;24.73;13.60;;;;;;;4.55;100.00;101400.75;5061906;28;20208;-57
2022/12/19 04:34:27;;;;;;;22.97;13.83;;;;;;;4.54;100.00;101404.16;5068815;28;20220;-57
2022/12/19 04:36:53;;;;;;;25.10;13.77;;;;;;;4.65;100.00;101405.31;5069778;28;20196;-58
2022/12/19 04:39:20;;;;;;;24.57;14.07;;;;;;;4.69;100.00;101395.16;5069977;28;20263;-56
2022/12/19 04:41:47;;;;;;;23.93;13.27;;;;;;;4.71;100.00;101408.06;5069904;28;20291;-56
2022/12/19 04:44:14;;;;;;;27.53;14.33;;;;;;;4.74;100.00;101408.97;5070084;28;20208;-57
2022/12/19 04:46:41;;;;;;;22.37;13.73;;;;;;;4.66;100.00;101413.06;5067002;28;20274;-57
2022/12/19 04:49:08;;;;;;;27.30;13.93;;;;;;;4.71;100.00;101408.06;5065270;28;20204;-56
2022/12/19 04:51:36;;;;;;;25.53;14.50;;;;;;;4.65;100.00;101415.59;5064244;28;20603;-56
2022/12/19 04:54:03;;;;;;;27.30;15.43;;;;;;;4.65;100.00;101418.16;5032730;28;20217;-56
2022/12/19 04:56:30;;;;;;;26.63;15.00;;;;;;;4.70;100.00;101421.75;5039159;28;20199;-60
2022/12/19 04:58:58;;;;;;;28.73;14.90;;;;;;;4.71;100.00;101423.47;5034218;28;20583;-60
2022/12/19 05:01:26;;;;;;;25.63;14.03;;;;;;;4.72;100.00;101427.81;5029963;28;20202;-59
2022/12/19 05:03:53;;;;;;;26.37;14.80;;;;;;;4.81;100.00;101425.47;5029868;28;20276;-60
2022/12/19 05:06:20;;;;;;;27.90;16.03;;;;;;;4.88;100.00;101422.19;5029712;28;20197;-60
2022/12/19 05:08:48;;;;;;;28.17;15.57;;;;;;;4.91;100.00;101440.28;5029741;28;20204;-60
2022/12/19 05:11:16;;;;;;;28.23;15.17;;;;;;;4.90;100.00;101438.53;5029826;28;20201;-60
2022/12/19 05:13:43;;;;;;;25.73;16.23;;;;;;;4.96;100.00;101443.84;5029833;28;20238;-60
2022/12/19 05:16:12;;;;;;;29.47;16.27;;;;;;;4.95;100.00;101442.13;5029599;28;20236;-61
2022/12/19 05:18:39;;;;;;;28.53;16.47;;;;;;;4.98;100.00;101456.75;5029163;28;20201;-61
2022/12/19 05:21:06;;;;;;;27.33;15.80;;;;;;;5.01;100.00;101444.81;5029422;28;20212;-60
2022/12/19 05:23:33;;;;;;;31.20;17.53;;;;;;;5.05;100.00;101456.94;5029380;28;20245;-58
2022/12/19 05:26:04;;;;;;;28.53;17.30;;;;;;;5.07;100.00;101455.28;5029638;28;20207;-60
2022/12/19 05:28:32;;;;;;;26.23;14.67;;;;;;;5.11;100.00;101461.34;5029707;28;20233;-59
2022/12/19 05:31:07;;;;;;;32.47;17.57;;;;;;;5.16;100.00;101466.63;5029655;28;20197;-59
2022/12/19 05:33:34;;;;;;;26.53;16.57;;;;;;;5.25;100.00;101462.56;5029552;28;20267;-58
2022/12/19 05:36:01;;;;;;;28.03;16.23;;;;;;;5.27;100.00;101458.34;5029329;28;20582;-59
2022/12/19 05:38:29;;;;;;;31.47;17.17;;;;;;;5.26;100.00;101466.00;5029210;28;20580;-59
2022/12/19 05:40:56;;;;;;;27.67;16.60;;;;;;;5.29;100.00;101473.81;5028288;28;20198;-59
2022/12/19 05:43:24;;;;;;;27.73;15.87;;;;;;;5.27;100.00;101467.75;5028652;28;20197;-60
2022/12/19 05:45:51;;;;;;;31.37;17.57;;;;;;;5.29;100.00;101466.97;5029366;28;20208;-60
2022/12/19 05:48:18;;;;;;;30.90;16.17;;;;;;;5.34;100.00;101462.78;5029289;28;20201;-59
2022/12/19 05:50:48;;;;;;;29.13;17.20;;;;;;;5.39;100.00;101468.94;5028906;28;20202;-60
2022/12/19 05:53:15;;;;;;;33.80;17.13;;;;;;;5.34;100.00;101469.63;5029511;28;20681;-59
2022/12/19 05:55:42;;;;;;;31.83;17.93;;;;;;;5.27;100.00;101478.06;5028579;28;20231;-59
2022/12/19 05:58:09;;;;;;;29.77;17.73;;;;;;;5.36;100.00;101475.69;5029856;28;20196;-59
2022/12/19 06:00:37;;;;;;;29.83;16.87;;;;;;;5.29;100.00;101459.25;5032946;28;20595;-59
2022/12/19 06:03:04;;;;;;;29.93;16.50;;;;;;;5.34;100.00;101475.66;5033242;28;20196;-56
2022/12/19 06:05:32;;;;;;;29.50;16.83;;;;;;;5.36;100.00;101480.84;5033043;28;20215;-56
2022/12/19 06:07:59;;;;;;;29.70;16.43;;;;;;;5.35;100.00;101481.69;5033184;28;20740;-59
2022/12/19 06:10:25;;;;;;;27.10;16.27;;;;;;;5.38;100.00;101481.75;5033249;28;20661;-56
2022/12/19 06:12:52;;;;;;;33.07;17.10;;;;;;;5.40;100.00;101490.41;5033121;28;20283;-57
2022/12/19 06:15:19;;;;;;;30.70;17.50;;;;;;;5.36;100.00;101494.59;5032662;28;20237;-56
2022/12/19 06:17:47;;;;;;;26.87;16.47;;;;;;;5.44;100.00;101493.06;5032880;28;20208;-59
2022/12/19 06:20:14;;;;;;;26.27;15.40;;;;;;;5.36;100.00;101493.72;5032957;28;20205;-59
2022/12/19 06:22:41;;;;;;;27.13;16.00;;;;;;;5.46;100.00;101500.81;5032718;28;20558;-56
2022/12/19 06:25:09;;;;;;;28.57;16.27;;;;;;;5.48;100.00;101510.34;5032891;28;20193;-59
2022/12/19 06:27:36;;;;;;;26.87;15.83;;;;;;;5.51;100.00;101514.69;5032148;28;20205;-59
2022/12/19 06:30:03;;;;;;;33.63;16.07;;;;;;;5.53;100.00;101509.59;5030787;28;20700;-60
2022/12/19 06:32:30;;;;;;;29.80;15.93;;;;;;;5.49;100.00;101518.94;5030980;28;20221;-59
2022/12/19 06:34:58;;;;;;;29.80;15.20;;;;;;;5.44;100.00;101513.66;5032033;28;20316;-59
2022/12/19 06:37:25;;;;;;;23.97;14.43;;;;;;;5.50;100.00;101525.84;5031360;28;20211;-55
2022/12/19 06:39:52;;;;;;;26.03;14.43;;;;;;;5.54;100.00;101530.19;5031084;28;20225;-57
2022/12/19 06:42:24;;;;;;;25.57;14.50;;;;;;;5.52;100.00;101521.59;5031886;28;20225;-57
2022/12/19 06:44:52;;;;;;;34.80;17.03;;;;;;;5.51;100.00;101526.72;5031903;28;20305;-55
2022/12/19 06:47:20;;;;;;;28.03;14.80;;;;;;;5.53;100.00;101536.19;5031758;28;20316;-58
2022/12/19 06:49:49;;;;;;;22.30;13.17;;;;;;;5.47;100.00;101529.19;5031886;28;20221;-58
2022/12/19 06:52:17;;;;;;;26.17;14.80;;;;;;;5.54;100.00;101535.34;5031994;28;20296;-58
2022/12/19 06:54:44;;;;;;;25.43;14.40;;;;;;;5.54;100.00;101540.50;5031066;28;20259;-58
2022/12/19 06:57:11;;;;;;;22.50;13.47;;;;;;;5.50;100.00;101543.88;5032244;28;20225;-59
2022/12/19 06:59:38;;;;;;;28.90;14.07;;;;;;;5.62;100.00;101548.44;5045323;28;20229;-56
2022/12/19 07:02:18;;;;;;;22.33;12.70;;;;;;;5.65;100.00;101551.94;5071540;28;20224;-56
2022/12/19 07:04:48;;;;;;;36.07;16.27;;;;;;;5.65;100.00;101553.63;5071353;28;20223;-56
2022/12/19 07:07:15;;;;;;;30.80;15.93;;;;;;;5.67;100.00;101552.84;5071229;28;20255;-56
2022/12/19 07:09:43;;;;;;;29.00;14.33;;;;;;;5.66;100.00;101551.09;5070676;28;20215;-56
2022/12/19 07:12:10;;;;;;;27.37;14.13;;;;;;;5.67;100.00;101546.81;5071300;28;20231;-55
2022/12/19 07:14:37;;;;;;;30.27;14.73;;;;;;;5.70;100.00;101562.38;5071106;28;20219;-55
2022/12/19 07:17:05;;;;;;;23.57;13.93;;;;;;;5.65;100.00;101556.22;5071469;28;20248;-56
2022/12/19 07:19:33;;;;;;;25.40;13.47;;;;;;;5.72;100.00;101561.56;5071148;28;20699;-56
2022/12/19 07:22:02;;;;;;;28.70;15.03;;;;;;;5.79;100.00;101573.75;5071358;28;20220;-60
2022/12/19 07:24:30;;;;;;;21.90;13.93;;;;;;;5.84;100.00;101576.44;5070264;28;20293;-56
2022/12/19 07:26:58;;;;;;;23.00;14.23;;;;;;;5.72;100.00;101556.41;5071220;28;20307;-60
2022/12/19 07:29:25;;;;;;;27.80;14.20;;;;;;;5.80;100.00;101574.63;5036311;28;20308;-59
2022/12/19 07:31:52;;;;;;;23.67;14.27;;;;;;;5.83;100.00;101577.28;5030582;28;20262;-55
2022/12/19 07:34:19;;;;;;;26.03;14.87;;;;;;;5.78;100.00;101590.03;5031439;28;20228;-55
2022/12/19 07:36:46;;;;;;;30.03;13.93;;;;;;;5.83;100.00;101585.88;5031451;28;20197;-55
2022/12/19 07:39:13;;;;;;;29.00;15.27;;;;;;;5.79;100.00;101584.06;5040799;28;20339;-55
2022/12/19 07:41:40;;;;;;;27.53;15.93;;;;;;;5.85;100.00;101591.09;5030907;28;20227;-54
2022/12/19 07:44:08;;;;;;;30.07;14.80;;;;;;;6.07;100.00;101587.31;5070087;28;20652;-55
2022/12/19 07:46:35;;;;;;;24.20;13.67;;;;;;;6.10;100.00;101595.97;5070723;28;20242;-55
2022/12/19 07:49:02;;;;;;;24.10;12.50;;;;;;;6.14;100.00;101596.94;5070749;28;20219;-55
2022/12/19 07:51:29;;;;;;;28.10;13.67;;;;;;;6.27;100.00;101600.66;5069647;28;20226;-55
2022/12/19 07:53:56;;;;;;;29.17;14.57;;;;;;;6.18;100.00;101597.03;5070957;28;20222;-56
2022/12/19 07:56:23;;;;;;;27.03;14.90;;;;;;;6.18;100.00;101607.34;5070493;28;20732;-56
2022/12/19 07:58:50;;;;;;;28.07;15.53;;;;;;;6.23;100.00;101617.75;5070496;28;20224;-56
2022/12/19 08:01:19;;;;;;;35.10;15.50;;;;;;;6.35;100.00;101615.44;5033432;28;20304;-55
2022/12/19 08:03:45;;;;;;;32.57;15.70;;;;;;;6.24;100.00;101600.56;5029378;28;20201;-56
2022/12/19 08:06:12;;;;;;;28.37;15.50;;;;;;;6.39;100.00;101614.69;5030423;28;20725;-56
2022/12/19 08:08:39;;;;;;;28.03;15.70;;;;;;;6.36;100.00;101618.91;5030504;28;20208;-56
2022/12/19 08:11:08;;;;;;;29.87;15.77;;;;;;;6.33;100.00;101616.25;5030221;28;20251;-55
2022/12/19 08:13:35;;;;;;;30.17;16.43;;;;;;;6.30;100.00;101629.97;5030575;28;20243;-55
2022/12/19 08:16:02;;;;;;;26.67;15.43;;;;;;;6.35;100.00;101628.34;5030610;28;20231;-55
2022/12/19 08:18:30;;;;;;;25.53;14.63;;;;;;;6.34;100.00;101633.47;5030721;28;20213;-55
2022/12/19 08:20:57;;;;;;;28.70;14.93;;;;;;;6.33;100.00;101627.44;5030194;28;20584;-54
2022/12/19 08:23:24;;;;;;;28.87;15.47;;;;;;;6.23;100.00;101630.66;5038907;28;20231;-56
2022/12/19 08:25:59;;;;;;;26.07;14.80;;;;;;;6.26;100.00;101629.84;5050403;28;20189;-56
2022/12/19 08:28:26;;;;;;;32.90;15.57;;;;;;;6.25;100.00;101622.94;5050500;28;20690;-59
2022/12/19 08:30:53;;;;;;;24.47;14.30;;;;;;;6.18;100.00;101637.44;5050352;28;20279;-60
2022/12/19 08:33:20;;;;;;;25.53;14.37;;;;;;;6.01;100.00;101623.25;5050303;28;20192;-59
2022/12/19 08:35:48;;;;;;;21.40;12.23;;;;;;;6.04;100.00;101623.34;5050331;28;20700;-56
2022/12/19 08:38:15;;;;;;;23.80;13.20;;;;;;;6.05;100.00;101643.13;5050219;28;20196;-56
2022/12/19 08:40:42;;;;;;;25.33;14.40;;;;;;;6.01;100.00;101633.56;5050221;28;20205;-56
2022/12/19 08:43:09;;;;;;;28.63;14.50;;;;;;;6.10;100.00;101638.94;5049707;28;20209;-56
2022/12/19 08:45:36;;;;;;;30.67;15.87;;;;;;;6.15;100.00;101643.38;5039081;28;20210;-56
2022/12/19 08:48:03;;;;;;;27.27;14.40;;;;;;;6.06;100.00;101638.00;5029985;28;20197;-54
2022/12/19 08:50:30;;;;;;;23.27;13.70;;;;;;;6.05;100.00;101638.84;5030084;28;20200;-59
2022/12/19 08:52:58;;;;;;;28.13;15.00;;;;;;;5.96;100.00;101635.19;5030133;28;20204;-59
2022/12/19 08:55:25;;;;;;;26.40;13.80;;;;;;;6.04;100.00;101646.53;5029685;28;20228;-56
2022/12/19 08:57:52;;;;;;;30.33;14.93;;;;;;;5.97;100.00;101644.66;5029941;28;20794;-56
2022/12/19 09:00:19;;;;;;;31.13;15.53;;;;;;;5.91;100.00;101640.22;5039603;28;20676;-55
2022/12/19 09:02:46;;;;;;;24.80;14.77;;;;;;;5.90;100.00;101650.47;5049794;28;20658;-55
2022/12/19 09:05:13;;;;;;;26.07;13.77;;;;;;;5.93;100.00;101642.84;5049888;28;20225;-56
2022/12/19 09:07:40;;;;;;;24.33;13.37;;;;;;;5.91;100.00;101641.91;5049223;28;20207;-55
2022/12/19 09:10:09;;;;;;;25.77;12.93;;;;;;;5.94;100.00;101642.88;5049659;28;20201;-55
2022/12/19 09:12:36;;;;;;;28.07;13.83;;;;;;;5.88;100.00;101634.97;5049335;28;20283;-55
2022/12/19 09:15:03;;;;;;;30.57;15.90;;;;;;;5.77;100.00;101621.81;5049327;28;20217;-59
2022/12/19 09:17:30;;;;;;;28.73;14.60;;;;;;;6.01;100.00;101636.16;5043234;28;20209;-60
2022/12/19 09:19:57;;;;;;;27.83;13.17;;;;;;;5.94;100.00;101631.69;5029532;28;20201;-60
2022/12/19 09:22:24;;;;;;;25.40;12.83;;;;;;;6.04;100.00;101641.38;5029317;28;20205;-56
2022/12/19 09:24:51;;;;;;;31.10;16.67;;;;;;;6.09;100.00;101629.50;5029473;28;20198;-55
2022/12/19 09:27:19;;;;;;;30.00;16.20;;;;;;;6.13;100.00;101639.88;5027951;28;20225;-56
2022/12/19 09:29:46;;;;;;;35.87;16.93;;;;;;;6.05;100.00;101645.69;5028660;28;20231;-59
2022/12/19 09:32:13;;;;;;;29.43;14.87;;;;;;;6.04;100.00;101638.81;5027752;28;20239;-58
2022/12/19 09:34:39;;;;;;;39.23;19.20;;;;;;;6.05;100.00;101636.25;5028549;28;20700;-59
2022/12/19 09:37:08;;;;;;;33.17;18.07;;;;;;;6.12;100.00;101625.25;5028852;28;20227;-60
2022/12/19 09:39:35;;;;;;;27.60;14.53;;;;;;;6.16;100.00;101626.19;5047127;28;20285;-56
2022/12/19 09:42:15;;;;;;;23.03;11.63;;;;;;;6.14;100.00;101622.72;5068485;28;20207;-60
2022/12/19 09:45:03;;;;;;;27.27;14.00;;;;;;;5.94;100.00;101629.13;5068159;28;20561;-56
2022/12/19 09:47:31;;;;;;;20.43;12.43;;;;;;;5.86;100.00;101613.44;5069100;28;20243;-59
2022/12/19 09:50:00;;;;;;;23.37;12.47;;;;;;;5.84;100.00;101628.88;5069189;28;20681;-59
2022/12/19 09:52:31;;;;;;;23.83;13.20;;;;;;;5.90;100.00;101617.84;5068926;28;20232;-59
2022/12/19 09:55:05;;;;;;;23.53;12.67;;;;;;;5.88;100.00;101611.78;5069246;28;20600;-56
2022/12/19 09:57:39;;;;;;;22.87;12.07;;;;;;;5.84;100.00;101612.53;5068594;28;20198;-56
2022/12/19 10:00:13;;;;;;;18.23;11.20;;;;;;;5.87;100.00;101610.00;5069016;28;20206;-56
2022/12/19 10:02:47;;;;;;;18.57;11.20;;;;;;;5.94;100.00;101613.66;5035816;28;20227;-55
2022/12/19 10:05:21;;;;;;;19.90;9.83;;;;;;;5.85;100.00;101609.13;5039636;28;20281;-55
2022/12/19 10:07:48;;;;;;;20.47;10.77;;;;;;;5.74;100.00;101606.28;5048521;28;20229;-59
2022/12/19 10:10:17;;;;;;;20.13;11.90;;;;;;;5.69;100.00;101601.84;5047869;28;20228;-59
2022/12/19 10:13:14;;;;;;;24.93;11.40;;;;;;;5.67;100.00;101599.22;5048437;28;20317;-59
2022/12/19 10:15:52;;;;;;;18.83;10.90;;;;;;;5.74;100.00;101592.53;5055032;28;20227;-59
2022/12/19 10:18:42;;;;;;;29.47;15.63;;;;;;;5.80;100.00;101590.97;5068875;28;20667;-59
2022/12/19 10:21:15;;;;;;;22.10;12.23;;;;;;;5.86;100.00;101579.06;5067862;28;20204;-56
2022/12/19 10:24:00;;;;;;;23.50;13.00;;;;;;;5.78;100.00;101572.00;5068408;28;20191;-55
2022/12/19 10:26:34;;;;;;;16.97;10.60;;;;;;;5.87;100.00;101567.94;5068588;28;20197;-56
2022/12/19 10:29:23;;;;;;;20.90;11.70;;;;;;;5.84;100.00;101569.59;5068566;28;20575;-56
2022/12/19 10:31:57;;;;;;;24.43;13.93;;;;;;;5.82;100.00;101570.38;5066596;28;20199;-56
2022/12/19 10:34:30;;;;;;;20.47;11.70;;;;;;;5.82;100.00;101579.00;5068432;28;20200;-55
2022/12/19 10:37:00;;;;;;;18.30;11.10;;;;;;;5.69;99.13;101565.78;5068447;28;20220;-57
2022/12/19 10:39:31;;;;;;;17.47;9.50;;;;;;;5.80;99.08;101572.91;5068500;28;20297;-55
2022/12/19 10:42:09;;;;;;;17.80;9.97;;;;;;;5.79;97.79;101568.59;5057819;28;20621;-54
2022/12/19 10:44:40;;;;;;;15.97;9.83;;;;;;;5.86;98.92;101558.44;5049798;28;20220;-55
2022/12/19 10:47:15;;;;;;;15.67;10.03;;;;;;;5.70;100.00;101550.34;5051981;28;20216;-59
2022/12/19 10:49:42;;;;;;;19.87;10.87;;;;;;;5.81;100.00;101551.47;5051665;28;20267;-55
2022/12/19 10:52:11;;;;;;;16.97;10.40;;;;;;;5.84;100.00;101548.09;5052437;28;20193;-59
2022/12/19 10:54:40;;;;;;;21.57;10.57;;;;;;;5.74;100.00;101551.31;5052356;28;20585;-59
2022/12/19 10:57:25;;;;;;;20.53;10.63;;;;;;;5.76;100.00;101545.31;5052284;28;20298;-59
2022/12/19 10:59:56;;;;;;;17.07;10.23;;;;;;;5.84;100.00;101553.25;5052173;28;20204;-59
2022/12/19 11:02:34;;;;;;;18.30;10.33;;;;;;;5.81;100.00;101554.06;5052085;28;20198;-60
2022/12/19 11:05:02;;;;;;;19.17;10.53;;;;;;;5.72;100.00;101548.69;5051946;28;20204;-59
2022/12/19 11:07:29;;;;;;;17.73;10.40;;;;;;;5.78;100.00;101546.25;5051803;28;20218;-60
2022/12/19 11:09:56;;;;;;;18.43;10.77;;;;;;;5.80;100.00;101549.72;5052067;28;20200;-60
2022/12/19 11:12:27;;;;;;;19.33;9.70;;;;;;;5.86;100.00;101550.72;5051890;28;20196;-59
2022/12/19 11:15:13;;;;;;;20.87;11.63;;;;;;;5.79;100.00;101542.84;5051779;28;20262;-59
2022/12/19 11:17:41;;;;;;;23.73;13.63;;;;;;;5.89;100.00;101550.78;5051806;28;20212;-55
2022/12/19 11:20:14;;;;;;;19.30;11.23;;;;;;;5.99;100.00;101545.00;5051548;28;20207;-55
2022/12/19 11:22:51;;;;;;;15.67;10.17;;;;;;;6.04;100.00;101538.25;5049398;28;20231;-56